Time;durP1;ratioP1;P1;durP2;ratioP2;P2;SDS_P1;SDS_P2;PMS_P1;PMS_P2;Temp;Humidity;BMP_temperature;BMP_pressure;BME280_temperature;BME280_humidity;BME280_pressure;Samples;Min_cycle;Max_cycle;Signal;HPM_P1;HPM_P2
2023/07/01 00:02:19;;;;;;;9.83;6.90;;;;;;;17.49;82.70;100377.47;4948587;28;20220;-73
2023/07/01 00:04:45;;;;;;;13.13;6.20;;;;;;;17.45;82.72;100382.06;4953744;28;21385;-74
2023/07/01 00:07:13;;;;;;;10.43;7.00;;;;;;;17.44;82.48;100375.16;4949542;28;20214;-73
2023/07/01 00:09:39;;;;;;;14.50;7.10;;;;;;;17.41;82.39;100383.16;4952688;28;20213;-73
2023/07/01 00:12:06;;;;;;;7.23;6.27;;;;;;;17.38;82.56;100378.56;4942954;28;20602;-73
2023/07/01 00:14:33;;;;;;;8.93;6.27;;;;;;;17.36;82.74;100381.59;4931767;28;20508;-73
2023/07/01 00:17:03;;;;;;;8.23;6.63;;;;;;;17.36;82.65;100391.50;4945070;28;20212;-74
2023/07/01 00:19:30;;;;;;;11.37;6.57;;;;;;;17.34;83.03;100375.84;4942255;28;20205;-73
2023/07/01 00:21:56;;;;;;;10.47;7.13;;;;;;;17.36;83.12;100378.16;4947509;28;20220;-73
2023/07/01 00:24:24;;;;;;;9.63;6.70;;;;;;;17.37;83.26;100380.47;4938664;28;20601;-73
2023/07/01 00:26:50;;;;;;;9.07;7.50;;;;;;;17.39;83.17;100382.78;4941956;28;20958;-73
2023/07/01 00:29:17;;;;;;;10.57;7.50;;;;;;;17.39;83.29;100382.78;4941341;28;20209;-73
2023/07/01 00:31:43;;;;;;;13.33;7.50;;;;;;;17.41;83.33;100373.28;4939896;28;20248;-73
2023/07/01 00:34:10;;;;;;;11.47;7.97;;;;;;;17.43;83.20;100375.56;4935045;28;20582;-74
2023/07/01 00:36:37;;;;;;;11.87;6.93;;;;;;;17.43;83.51;100365.63;4946792;28;21203;-74
2023/07/01 00:39:04;;;;;;;9.10;7.50;;;;;;;17.45;83.92;100367.94;4941190;28;20230;-73
2023/07/01 00:41:32;;;;;;;11.03;7.70;;;;;;;17.46;83.26;100369.47;4942965;28;20327;-73
2023/07/01 00:43:58;;;;;;;11.27;7.50;;;;;;;17.49;83.70;100363.38;4943567;28;21182;-72
2023/07/01 00:46:25;;;;;;;10.27;7.80;;;;;;;17.50;83.31;100360.31;4939420;28;20366;-73
2023/07/01 00:48:51;;;;;;;13.40;7.67;;;;;;;17.52;83.52;100346.59;4955041;28;20216;-74
2023/07/01 00:51:18;;;;;;;11.10;7.00;;;;;;;17.56;83.43;100347.38;4942005;28;20219;-74
2023/07/01 00:53:44;;;;;;;10.13;7.37;;;;;;;17.57;83.35;100355.00;4938890;28;20218;-73
2023/07/01 00:56:11;;;;;;;11.23;8.50;;;;;;;17.56;83.27;100356.16;4943129;28;20931;-74
2023/07/01 00:58:38;;;;;;;10.07;7.43;;;;;;;17.56;83.32;100345.47;4941824;28;20244;-74
2023/07/01 01:01:10;;;;;;;10.30;7.80;;;;;;;17.56;83.13;100344.69;4939020;28;20209;-73
2023/07/01 01:03:43;;;;;;;11.90;8.03;;;;;;;17.54;83.12;100342.41;4938951;28;20557;-74
2023/07/01 01:06:16;;;;;;;11.57;7.37;;;;;;;17.50;83.34;100346.22;4928291;28;20216;-73
2023/07/01 01:08:54;;;;;;;15.27;7.67;;;;;;;17.49;83.09;100342.03;4940102;28;20911;-74
2023/07/01 01:11:22;;;;;;;9.60;7.17;;;;;;;17.49;83.01;100336.69;4951041;28;20217;-73
2023/07/01 01:13:50;;;;;;;10.20;7.17;;;;;;;17.44;82.83;100337.78;4933556;28;20681;-73
2023/07/01 01:16:17;;;;;;;9.87;7.90;;;;;;;17.42;82.76;100339.31;4943739;28;20239;-73
2023/07/01 01:18:45;;;;;;;13.77;7.37;;;;;;;17.36;82.65;100330.88;4943041;28;20229;-73
2023/07/01 01:21:14;;;;;;;9.83;7.50;;;;;;;17.33;82.71;100338.88;4949217;28;20921;-73
2023/07/01 01:23:46;;;;;;;10.43;7.67;;;;;;;17.26;82.64;100344.19;4947302;28;21518;-73
2023/07/01 01:26:17;;;;;;;13.03;7.77;;;;;;;17.22;82.91;100336.16;4945616;28;20315;-73
2023/07/01 01:28:47;;;;;;;13.70;7.63;;;;;;;17.20;83.01;100335.00;4945811;28;20205;-73
2023/07/01 01:31:14;;;;;;;10.63;7.73;;;;;;;17.22;83.42;100335.38;4942393;28;20207;-73
2023/07/01 01:33:40;;;;;;;11.17;7.97;;;;;;;17.20;83.59;100338.47;4942910;28;22025;-73
2023/07/01 01:36:10;;;;;;;11.87;7.73;;;;;;;17.22;83.48;100333.50;4940621;28;20221;-74
2023/07/01 01:38:40;;;;;;;11.87;7.77;;;;;;;17.24;83.47;100328.53;4954949;28;20238;-73
2023/07/01 01:41:11;;;;;;;12.97;8.43;;;;;;;17.25;83.72;100331.97;4945834;28;20210;-73
2023/07/01 01:43:46;;;;;;;11.23;7.50;;;;;;;17.25;83.58;100327.41;4940236;28;20213;-73
2023/07/01 01:46:14;;;;;;;10.93;8.20;;;;;;;17.26;83.70;100333.50;4945878;28;20216;-73
2023/07/01 01:48:41;;;;;;;13.17;8.70;;;;;;;17.26;83.57;100331.63;4966652;28;20252;-74
2023/07/01 01:51:08;;;;;;;14.20;8.73;;;;;;;17.27;83.45;100332.34;4988155;28;20210;-74
2023/07/01 01:53:37;;;;;;;11.37;8.17;;;;;;;17.29;83.38;100338.09;4971574;28;20244;-74
2023/07/01 01:56:04;;;;;;;12.13;7.63;;;;;;;17.30;83.54;100335.06;4967566;28;20274;-74
2023/07/01 01:58:31;;;;;;;13.73;8.57;;;;;;;17.32;83.64;100334.66;4974495;28;20387;-74
2023/07/01 02:00:58;;;;;;;14.67;9.50;;;;;;;17.37;83.61;100323.63;4976676;28;20202;-74
2023/07/01 02:03:26;;;;;;;17.73;9.20;;;;;;;17.38;83.78;100333.19;4971531;28;20240;-74
2023/07/01 02:05:52;;;;;;;16.43;10.33;;;;;;;17.36;83.82;100327.44;4985454;28;20230;-74
2023/07/01 02:08:21;;;;;;;14.10;9.77;;;;;;;17.36;84.04;100320.22;4971090;28;20198;-73
2023/07/01 02:10:47;;;;;;;13.33;8.80;;;;;;;17.37;83.98;100324.41;4977918;28;20209;-74
2023/07/01 02:13:14;;;;;;;16.33;9.50;;;;;;;17.38;83.87;100317.16;4989062;28;23411;-74
2023/07/01 02:15:40;;;;;;;13.87;9.00;;;;;;;17.38;83.79;100315.28;4971278;28;20463;-74
2023/07/01 02:18:08;;;;;;;13.50;8.93;;;;;;;17.40;83.98;100315.69;4983423;28;20289;-74
2023/07/01 02:20:36;;;;;;;11.10;9.03;;;;;;;17.41;83.97;100308.44;4969127;28;21183;-73
2023/07/01 02:23:02;;;;;;;12.23;9.33;;;;;;;17.42;83.79;100301.94;4974447;28;20268;-74
2023/07/01 02:25:29;;;;;;;10.57;8.60;;;;;;;17.43;83.92;100304.25;4969759;28;20232;-73
2023/07/01 02:27:55;;;;;;;16.13;9.73;;;;;;;17.44;83.67;100297.00;4974720;28;20220;-73
2023/07/01 02:30:23;;;;;;;16.07;9.93;;;;;;;17.46;83.79;100300.06;4968568;28;20203;-74
2023/07/01 02:32:49;;;;;;;12.60;9.10;;;;;;;17.47;83.74;100288.22;4971806;28;20253;-73
2023/07/01 02:35:15;;;;;;;16.17;10.23;;;;;;;17.48;83.58;100290.53;4981058;28;20252;-73
2023/07/01 02:37:43;;;;;;;15.13;10.10;;;;;;;17.48;83.46;100279.06;4973337;28;20226;-73
2023/07/01 02:40:10;;;;;;;14.50;9.73;;;;;;;17.49;83.52;100283.28;4984359;28;20463;-74
2023/07/01 02:42:37;;;;;;;14.93;10.07;;;;;;;17.48;83.53;100284.41;4969166;28;20206;-74
2023/07/01 02:45:04;;;;;;;16.10;9.67;;;;;;;17.47;83.61;100281.00;4984953;28;20240;-74
2023/07/01 02:47:31;;;;;;;14.10;9.03;;;;;;;17.45;83.57;100280.63;4967300;28;20198;-73
2023/07/01 02:49:57;;;;;;;12.77;9.17;;;;;;;17.44;83.54;100287.06;4970236;28;20213;-74
2023/07/01 02:52:24;;;;;;;13.67;9.77;;;;;;;17.47;83.47;100281.00;4970763;28;20607;-74
2023/07/01 02:54:51;;;;;;;13.67;9.50;;;;;;;17.47;83.68;100280.22;4968355;28;20231;-73
2023/07/01 02:57:18;;;;;;;17.43;10.20;;;;;;;17.45;83.55;100277.16;4967792;28;20205;-74
2023/07/01 02:59:47;;;;;;;15.50;10.47;;;;;;;17.43;83.65;100276.78;4985234;28;20221;-74
2023/07/01 03:02:13;;;;;;;13.47;9.83;;;;;;;17.43;83.71;100274.13;4970164;28;20215;-73
2023/07/01 03:04:40;;;;;;;14.37;9.50;;;;;;;17.44;83.61;100275.66;4967701;28;20222;-74
2023/07/01 03:07:06;;;;;;;12.60;9.27;;;;;;;17.43;83.91;100274.13;4973809;28;20255;-73
2023/07/01 03:09:33;;;;;;;15.90;10.87;;;;;;;17.42;84.20;100278.69;4967297;28;20591;-74
2023/07/01 03:12:00;;;;;;;18.47;10.20;;;;;;;17.42;84.22;100280.59;4965937;28;20691;-74
2023/07/01 03:14:27;;;;;;;23.13;12.20;;;;;;;17.41;84.26;100273.72;4966968;28;20217;-74
2023/07/01 03:16:53;;;;;;;19.77;12.40;;;;;;;17.39;84.32;100276.75;4973353;28;20212;-73
2023/07/01 03:19:20;;;;;;;21.13;11.63;;;;;;;17.42;84.49;100283.25;4972710;28;20235;-74
2023/07/01 03:21:47;;;;;;;28.17;12.57;;;;;;;17.43;84.68;100277.53;4972667;28;20206;-74
2023/07/01 03:24:14;;;;;;;23.37;13.83;;;;;;;17.46;84.75;100276.03;4986091;28;20230;-74
2023/07/01 03:26:42;;;;;;;22.20;13.00;;;;;;;17.48;84.69;100274.50;4973352;28;20750;-74
2023/07/01 03:29:10;;;;;;;23.93;13.03;;;;;;;17.51;84.77;100281.00;4981298;28;20215;-73
2023/07/01 03:31:37;;;;;;;27.40;14.30;;;;;;;17.53;84.81;100278.69;4982873;28;20245;-73
2023/07/01 03:34:03;;;;;;;19.27;12.33;;;;;;;17.56;84.88;100278.72;4970977;28;20448;-73
2023/07/01 03:36:29;;;;;;;21.47;12.23;;;;;;;17.58;84.90;100273.75;4967247;28;20212;-73
2023/07/01 03:38:58;;;;;;;20.70;11.63;;;;;;;17.60;84.88;100281.41;4971443;28;20214;-73
2023/07/01 03:41:24;;;;;;;24.80;13.20;;;;;;;17.62;84.94;100274.53;4967406;28;20210;-73
2023/07/01 03:43:50;;;;;;;20.03;12.73;;;;;;;17.64;84.88;100277.59;4969235;28;20210;-73
2023/07/01 03:46:18;;;;;;;21.07;12.83;;;;;;;17.66;84.87;100272.66;4969007;28;20546;-74
2023/07/01 03:48:45;;;;;;;23.87;13.30;;;;;;;17.69;85.00;100279.13;4972733;28;20228;-74
2023/07/01 03:51:11;;;;;;;22.17;12.43;;;;;;;17.70;85.03;100268.06;4970341;28;20513;-74
2023/07/01 03:53:37;;;;;;;22.53;12.73;;;;;;;17.72;85.05;100263.09;4966924;28;20210;-74
2023/07/01 03:56:04;;;;;;;24.47;14.07;;;;;;;17.74;84.91;100274.16;4972807;28;20209;-74
2023/07/01 03:58:31;;;;;;;24.13;12.47;;;;;;;17.76;84.99;100260.44;4970497;28;20201;-73
2023/07/01 04:00:57;;;;;;;21.07;12.10;;;;;;;17.80;84.77;100266.56;4984252;28;20206;-74
2023/07/01 04:03:25;;;;;;;17.90;11.33;;;;;;;17.81;84.78;100266.16;4984450;28;20220;-74
2023/07/01 04:05:51;;;;;;;21.60;13.00;;;;;;;17.83;85.09;100271.13;4976290;28;20236;-74
2023/07/01 04:08:18;;;;;;;25.07;12.77;;;;;;;17.85;85.13;100264.25;4973120;28;20198;-74
2023/07/01 04:10:44;;;;;;;25.00;13.30;;;;;;;17.87;84.94;100259.31;4975546;28;20229;-74
2023/07/01 04:13:11;;;;;;;20.37;12.33;;;;;;;17.91;85.00;100267.31;4973441;28;20210;-74
2023/07/01 04:15:37;;;;;;;21.30;13.27;;;;;;;17.91;84.94;100257.38;4970098;28;20268;-74
2023/07/01 04:18:04;;;;;;;22.07;12.93;;;;;;;17.95;84.97;100255.47;4987152;28;20251;-74
2023/07/01 04:20:32;;;;;;;19.83;12.30;;;;;;;17.98;84.97;100257.41;4970986;28;20699;-74
2023/07/01 04:22:59;;;;;;;22.50;13.87;;;;;;;18.00;84.94;100257.03;4973230;28;20270;-74
2023/07/01 04:25:25;;;;;;;20.97;13.53;;;;;;;18.02;84.83;100255.50;4970563;28;20229;-73
2023/07/01 04:27:51;;;;;;;21.33;13.50;;;;;;;18.04;84.93;100252.41;4971204;28;20198;-73
2023/07/01 04:30:18;;;;;;;25.27;14.10;;;;;;;18.07;84.80;100246.31;4963546;28;20207;-73
2023/07/01 04:32:44;;;;;;;26.63;13.27;;;;;;;18.10;84.95;100257.00;4971467;28;20208;-73
2023/07/01 04:35:11;;;;;;;23.97;13.90;;;;;;;18.14;85.09;100254.31;4967063;28;20226;-73
2023/07/01 04:37:38;;;;;;;26.50;13.73;;;;;;;18.16;85.29;100250.13;4974163;28;20209;-73
2023/07/01 04:40:06;;;;;;;21.13;13.50;;;;;;;18.20;84.98;100255.44;4968467;28;20218;-73
2023/07/01 04:42:34;;;;;;;26.87;14.43;;;;;;;18.23;85.17;100254.69;4962752;28;20210;-73
2023/07/01 04:45:00;;;;;;;23.37;14.30;;;;;;;18.26;84.78;100259.28;4967763;28;20242;-74
2023/07/01 04:47:27;;;;;;;20.30;13.37;;;;;;;18.29;84.82;100261.19;4967613;28;20217;-73
2023/07/01 04:49:54;;;;;;;23.97;13.83;;;;;;;18.32;84.78;100253.19;4970513;28;20861;-73
2023/07/01 04:52:21;;;;;;;24.47;13.60;;;;;;;18.33;84.85;100257.41;4973058;28;20297;-73
2023/07/01 04:54:49;;;;;;;19.27;13.50;;;;;;;18.36;84.52;100261.97;4974014;28;20239;-73
2023/07/01 04:57:16;;;;;;;22.80;13.40;;;;;;;18.37;84.40;100263.47;4975650;28;20222;-73
2023/07/01 04:59:42;;;;;;;25.70;13.53;;;;;;;18.39;84.19;100252.41;4973622;28;20293;-73
2023/07/01 05:02:09;;;;;;;19.53;12.73;;;;;;;18.39;84.15;100252.41;4972007;28;20220;-73
2023/07/01 05:04:36;;;;;;;21.33;13.33;;;;;;;18.39;84.00;100253.19;4971347;28;20233;-73
2023/07/01 05:07:02;;;;;;;19.73;12.43;;;;;;;18.42;84.20;100255.06;4974452;28;20240;-73
2023/07/01 05:09:29;;;;;;;17.87;11.83;;;;;;;18.46;83.99;100263.09;4971152;28;20210;-73
2023/07/01 05:11:56;;;;;;;22.77;13.60;;;;;;;18.48;83.99;100264.22;4972719;28;20210;-73
2023/07/01 05:14:23;;;;;;;22.23;12.57;;;;;;;18.49;83.81;100265.00;4971027;28;20244;-73
2023/07/01 05:16:49;;;;;;;18.63;12.90;;;;;;;18.51;83.66;100263.47;4975130;28;20777;-73
2023/07/01 05:19:15;;;;;;;17.90;12.13;;;;;;;18.54;83.63;100256.59;4971723;28;20213;-73
2023/07/01 05:21:49;;;;;;;19.57;12.27;;;;;;;18.56;83.76;100260.41;4970444;28;20206;-73
2023/07/01 05:24:16;;;;;;;19.40;12.27;;;;;;;18.61;83.59;100262.69;4971541;28;20232;-73
2023/07/01 05:26:45;;;;;;;21.00;12.93;;;;;;;18.65;83.73;100265.34;4970578;28;20232;-74
2023/07/01 05:29:13;;;;;;;21.60;13.03;;;;;;;18.67;83.62;100269.16;4971149;28;20229;-73
2023/07/01 05:31:39;;;;;;;23.03;13.17;;;;;;;18.72;83.35;100263.41;4973187;28;20225;-73
2023/07/01 05:34:06;;;;;;;20.73;13.40;;;;;;;18.78;83.49;100266.47;4974541;28;20226;-74
2023/07/01 05:36:32;;;;;;;21.57;13.00;;;;;;;18.81;83.73;100263.78;4972136;28;20949;-72
2023/07/01 05:38:58;;;;;;;20.17;14.03;;;;;;;18.84;83.44;100257.63;4967527;28;20303;-73
2023/07/01 05:41:25;;;;;;;25.40;15.20;;;;;;;18.89;83.42;100262.56;4972961;28;20210;-73
2023/07/01 05:43:51;;;;;;;25.33;15.30;;;;;;;18.97;83.59;100257.97;4973829;28;20210;-73
2023/07/01 05:46:19;;;;;;;24.80;15.60;;;;;;;19.03;83.45;100267.09;4967663;28;20711;-73
2023/07/01 05:48:45;;;;;;;24.80;16.07;;;;;;;19.08;83.25;100251.41;4968025;28;20205;-73
2023/07/01 05:51:12;;;;;;;25.20;15.93;;;;;;;19.12;82.92;100262.09;4975908;28;20220;-74
2023/07/01 05:53:38;;;;;;;26.30;15.73;;;;;;;19.15;82.42;100255.97;4970225;28;20202;-73
2023/07/01 05:56:05;;;;;;;21.63;15.30;;;;;;;19.20;82.09;100261.66;4972466;28;20573;-74
2023/07/01 05:58:31;;;;;;;20.23;14.93;;;;;;;19.25;81.99;100269.31;4970468;28;20224;-73
2023/07/01 06:00:57;;;;;;;21.63;15.43;;;;;;;19.26;81.74;100262.06;4972945;28;20218;-73
2023/07/01 06:03:25;;;;;;;22.37;15.33;;;;;;;19.32;81.79;100268.53;4972487;28;20214;-73
2023/07/01 06:05:51;;;;;;;18.10;14.70;;;;;;;19.35;81.60;100267.75;4972911;28;20236;-74
2023/07/01 06:08:18;;;;;;;19.10;13.97;;;;;;;19.33;81.39;100278.09;4971476;28;20272;-73
2023/07/01 06:10:44;;;;;;;17.33;13.30;;;;;;;19.35;80.98;100265.84;4969191;28;20209;-73
2023/07/01 06:13:10;;;;;;;17.73;12.63;;;;;;;19.34;80.63;100275.03;4973047;28;20217;-74
2023/07/01 06:15:37;;;;;;;16.00;12.77;;;;;;;19.35;80.93;100265.09;4977993;28;20222;-73
2023/07/01 06:18:03;;;;;;;15.00;11.97;;;;;;;19.39;80.75;100263.91;4971345;28;20208;-73
2023/07/01 06:20:31;;;;;;;17.83;13.53;;;;;;;19.41;80.71;100266.94;4966263;28;20214;-73
2023/07/01 06:22:57;;;;;;;16.10;13.17;;;;;;;19.44;80.36;100262.72;4972455;28;20202;-74
2023/07/01 06:25:24;;;;;;;17.90;12.53;;;;;;;19.50;80.45;100263.84;4971135;28;20239;-74
2023/07/01 06:27:50;;;;;;;16.03;12.50;;;;;;;19.50;80.29;100256.56;4970834;28;20210;-74
2023/07/01 06:30:16;;;;;;;13.90;11.13;;;;;;;19.56;80.28;100257.66;4964068;28;20198;-74
2023/07/01 06:32:43;;;;;;;12.73;10.10;;;;;;;19.55;78.79;100260.75;4981460;28;20309;-74
2023/07/01 06:35:09;;;;;;;15.50;10.10;;;;;;;19.58;79.56;100250.03;4974638;28;20230;-73
2023/07/01 06:37:37;;;;;;;12.10;10.13;;;;;;;19.62;79.56;100258.03;4971550;28;20237;-73
2023/07/01 06:40:04;;;;;;;13.70;10.83;;;;;;;19.69;79.89;100258.75;4973342;28;20598;-74
2023/07/01 06:42:30;;;;;;;15.23;10.30;;;;;;;19.75;79.32;100259.84;4971677;28;20229;-74
2023/07/01 06:44:57;;;;;;;11.10;9.27;;;;;;;19.74;78.21;100262.91;4972389;28;20230;-74
2023/07/01 06:47:23;;;;;;;13.60;10.13;;;;;;;19.85;79.25;100266.25;4970621;28;20232;-73
2023/07/01 06:49:50;;;;;;;11.17;9.40;;;;;;;19.93;79.47;100262.38;4972049;28;20206;-73
2023/07/01 06:52:16;;;;;;;14.47;8.77;;;;;;;19.97;78.56;100260.44;4969479;28;20260;-73
2023/07/01 06:54:44;;;;;;;12.23;8.97;;;;;;;19.98;77.80;100256.59;4967262;28;20236;-74
2023/07/01 06:57:10;;;;;;;10.97;8.83;;;;;;;19.98;77.21;100267.31;4970041;28;20244;-73
2023/07/01 06:59:37;;;;;;;10.57;7.90;;;;;;;19.99;76.74;100261.56;4970839;28;20631;-74
2023/07/01 07:02:04;;;;;;;18.50;8.67;;;;;;;20.01;76.79;100256.56;4973327;28;20533;-73
2023/07/01 07:04:30;;;;;;;12.60;8.10;;;;;;;20.09;77.77;100255.41;4965969;28;20233;-73
2023/07/01 07:06:56;;;;;;;8.80;7.87;;;;;;;20.12;76.24;100253.84;4972400;28;20217;-74
2023/07/01 07:09:23;;;;;;;11.83;8.20;;;;;;;20.19;76.69;100246.47;4965766;28;20211;-74
2023/07/01 07:11:54;;;;;;;9.30;8.00;;;;;;;20.25;75.11;100255.63;4970286;28;21492;-74
2023/07/01 07:14:21;;;;;;;9.33;7.70;;;;;;;20.30;75.23;100249.84;4968249;28;20236;-73
2023/07/01 07:16:47;;;;;;;9.63;7.30;;;;;;;20.41;76.04;100253.16;4970875;28;20222;-73
2023/07/01 07:19:14;;;;;;;7.63;6.67;;;;;;;20.43;74.23;100248.16;4970665;28;20206;-73
2023/07/01 07:21:41;;;;;;;9.93;6.93;;;;;;;20.49;75.96;100248.50;4967247;28;20244;-74
2023/07/01 07:24:07;;;;;;;8.00;7.20;;;;;;;20.54;74.78;100245.38;4971996;28;20608;-73
2023/07/01 07:26:34;;;;;;;7.77;6.77;;;;;;;20.58;75.12;100241.47;4969306;28;20820;-73
2023/07/01 07:29:02;;;;;;;11.53;7.17;;;;;;;20.59;73.87;100232.25;4972315;28;20272;-73
2023/07/01 07:31:28;;;;;;;9.50;6.97;;;;;;;20.62;73.85;100241.44;4987740;28;20219;-73
2023/07/01 07:33:55;;;;;;;7.20;6.40;;;;;;;20.69;76.02;100231.38;4984224;28;20629;-73
2023/07/01 07:36:21;;;;;;;7.10;6.40;;;;;;;20.72;74.17;100240.56;4970551;28;20216;-74
2023/07/01 07:38:47;;;;;;;6.77;5.87;;;;;;;20.73;74.04;100234.78;4969462;28;20636;-73
2023/07/01 07:41:14;;;;;;;7.23;6.53;;;;;;;20.77;73.12;100224.78;4974657;28;20232;-73
2023/07/01 07:43:40;;;;;;;6.20;5.70;;;;;;;20.82;73.43;100226.25;4971320;28;20206;-73
2023/07/01 07:46:08;;;;;;;11.40;6.30;;;;;;;20.85;71.17;100225.47;4973727;28;20209;-73
2023/07/01 07:48:34;;;;;;;10.87;6.10;;;;;;;20.92;71.94;100231.53;4963402;28;20263;-73
2023/07/01 07:51:01;;;;;;;6.97;6.27;;;;;;;21.06;72.01;100228.66;4963910;28;20209;-73
2023/07/01 07:53:27;;;;;;;7.53;5.87;;;;;;;21.13;70.38;100225.88;4965243;28;20245;-73
2023/07/01 07:55:53;;;;;;;6.23;5.63;;;;;;;21.19;70.06;100218.88;4971787;28;20240;-73
2023/07/01 07:58:20;;;;;;;6.60;6.00;;;;;;;21.30;73.41;100232.16;4968474;28;20235;-73
2023/07/01 08:00:46;;;;;;;5.93;5.20;;;;;;;21.34;70.68;100225.59;4963303;28;20222;-73
2023/07/01 08:03:14;;;;;;;5.70;4.70;;;;;;;21.42;70.07;100223.56;4940512;28;20230;-73
2023/07/01 08:05:40;;;;;;;5.93;4.90;;;;;;;21.46;67.23;100232.31;4945826;28;20558;-74
2023/07/01 08:08:08;;;;;;;6.00;4.73;;;;;;;21.52;71.64;100220.69;4951158;28;20253;-73
2023/07/01 08:10:34;;;;;;;6.70;5.10;;;;;;;21.53;67.79;100227.59;4941981;28;20290;-73
2023/07/01 08:13:00;;;;;;;5.67;4.87;;;;;;;21.57;69.05;100220.25;4942104;28;20241;-74
2023/07/01 08:15:27;;;;;;;7.77;5.10;;;;;;;21.61;67.58;100212.13;4942362;28;20233;-73
2023/07/01 08:17:53;;;;;;;7.63;5.00;;;;;;;21.58;64.73;100215.63;4941015;28;20713;-73
2023/07/01 08:20:23;;;;;;;11.63;4.80;;;;;;;21.57;63.42;100214.13;4944202;28;20218;-74
2023/07/01 08:22:49;;;;;;;5.57;4.50;;;;;;;21.51;64.19;100216.50;4946026;28;20210;-73
2023/07/01 08:25:15;;;;;;;6.17;4.73;;;;;;;21.47;63.09;100207.72;4949634;28;20237;-73
2023/07/01 08:27:42;;;;;;;6.93;4.20;;;;;;;21.38;60.97;100210.16;4949737;28;20538;-73
2023/07/01 08:30:09;;;;;;;8.93;4.67;;;;;;;21.38;61.89;100201.34;4951936;28;20652;-74
2023/07/01 08:32:35;;;;;;;10.30;4.60;;;;;;;21.39;64.62;100203.63;4951413;28;20217;-74
2023/07/01 08:35:01;;;;;;;6.10;4.33;;;;;;;21.42;64.26;100194.00;4947455;28;20230;-74
2023/07/01 08:37:30;;;;;;;7.33;4.10;;;;;;;21.46;61.66;100195.47;4949252;28;20203;-73
2023/07/01 08:39:56;;;;;;;4.60;4.13;;;;;;;21.49;61.34;100196.56;4935835;28;20219;-74
2023/07/01 08:42:27;;;;;;;5.00;4.50;;;;;;;21.47;60.31;100196.97;4961222;28;20723;-74
2023/07/01 08:44:54;;;;;;;6.43;4.30;;;;;;;21.52;61.85;100193.81;4967095;28;20230;-74
2023/07/01 08:47:21;;;;;;;4.20;3.73;;;;;;;21.60;65.74;100184.50;4971945;28;20217;-74
2023/07/01 08:49:50;;;;;;;7.07;4.10;;;;;;;21.68;61.47;100188.59;4968608;28;20572;-74
2023/07/01 08:52:20;;;;;;;4.73;3.57;;;;;;;21.76;59.11;100186.56;4972026;28;20229;-74
2023/07/01 08:54:49;;;;;;;4.20;3.77;;;;;;;21.78;63.78;100185.00;4970872;28;20229;-74
2023/07/01 08:57:16;;;;;;;6.67;4.13;;;;;;;21.78;61.05;100181.56;4987617;28;20210;-74
2023/07/01 08:59:43;;;;;;;4.30;4.00;;;;;;;21.81;58.15;100181.50;4968573;28;20226;-73
2023/07/01 09:02:10;;;;;;;5.53;4.17;;;;;;;21.86;57.47;100181.03;4978415;28;20231;-74
2023/07/01 09:04:38;;;;;;;8.80;4.10;;;;;;;21.91;58.84;100179.78;4976013;28;20234;-73
2023/07/01 09:07:05;;;;;;;4.87;3.63;;;;;;;21.98;60.28;100180.41;4972143;28;20288;-74
2023/07/01 09:09:33;;;;;;;5.03;3.60;;;;;;;22.05;59.07;100176.84;4967267;28;20586;-74
2023/07/01 09:12:01;;;;;;;6.57;3.40;;;;;;;22.08;56.46;100181.38;4963361;28;20724;-74
2023/07/01 09:14:27;;;;;;;3.97;3.23;;;;;;;22.11;57.02;100177.88;4962769;28;20316;-74
2023/07/01 09:16:54;;;;;;;4.70;3.37;;;;;;;22.13;57.63;100176.31;4966239;28;20240;-74
2023/07/01 09:19:22;;;;;;;4.97;3.47;;;;;;;22.18;55.62;100178.50;4966516;28;20765;-73
2023/07/01 09:21:49;;;;;;;4.33;3.23;;;;;;;22.24;56.91;100174.16;4970022;28;20605;-74
2023/07/01 09:24:15;;;;;;;6.30;3.30;;;;;;;22.28;54.35;100174.09;4972337;28;20222;-74
2023/07/01 09:26:42;;;;;;;7.33;2.80;;;;;;;22.28;58.29;100168.72;4967442;28;20265;-73
2023/07/01 09:29:12;;;;;;;7.73;3.13;;;;;;;22.30;53.55;100169.81;4974975;28;20464;-74
2023/07/01 09:31:47;;;;;;;5.93;3.10;;;;;;;22.34;52.68;100161.69;4975637;28;20233;-74
2023/07/01 09:34:13;;;;;;;2.87;2.60;;;;;;;22.39;59.36;100156.59;4971450;28;20231;-74
2023/07/01 09:36:40;;;;;;;6.13;2.80;;;;;;;22.41;55.31;100153.50;4985225;28;20942;-73
2023/07/01 09:39:06;;;;;;;6.00;3.00;;;;;;;22.48;54.86;100161.44;4966322;28;20222;-74
2023/07/01 09:41:33;;;;;;;3.57;2.70;;;;;;;22.53;53.87;100158.25;4971959;28;20594;-74
2023/07/01 09:44:00;;;;;;;2.53;2.30;;;;;;;22.60;54.98;100152.72;4965370;28;20249;-74
2023/07/01 09:46:41;;;;;;;5.47;3.23;;;;;;;22.66;57.31;100151.81;4965648;28;20256;-74
2023/07/01 09:49:08;;;;;;;3.87;3.30;;;;;;;22.72;58.34;100152.09;4966351;28;20233;-73
2023/07/01 09:51:46;;;;;;;2.40;2.20;;;;;;;22.77;52.06;100143.53;4967562;28;20305;-73
2023/07/01 09:54:23;;;;;;;12.33;6.37;;;;;;;22.82;53.41;100143.03;4968518;28;20296;-74
2023/07/01 09:56:50;;;;;;;16.63;6.80;;;;;;;22.87;55.17;100137.16;4967225;28;20693;-74
2023/07/01 09:59:17;;;;;;;4.80;2.77;;;;;;;22.94;53.32;100142.38;4970497;28;20213;-74
2023/07/01 10:01:45;;;;;;;4.80;3.20;;;;;;;22.98;50.64;100133.03;4968766;28;20229;-73
2023/07/01 10:04:12;;;;;;;3.83;2.27;;;;;;;23.03;55.81;100126.41;4971691;28;20225;-74
2023/07/01 10:06:38;;;;;;;5.10;2.10;;;;;;;23.09;57.79;100130.88;4970718;28;20206;-74
2023/07/01 10:09:05;;;;;;;3.53;2.57;;;;;;;23.16;56.08;100125.31;4973752;28;20291;-74
2023/07/01 10:11:32;;;;;;;3.27;2.43;;;;;;;23.23;53.53;100113.66;4970972;28;20197;-74
2023/07/01 10:14:03;;;;;;;3.47;2.30;;;;;;;23.29;51.52;100120.06;4967349;28;20218;-74
2023/07/01 10:16:30;;;;;;;6.70;2.30;;;;;;;23.36;52.89;100119.88;4969961;28;20213;-75
2023/07/01 10:18:57;;;;;;;2.73;1.90;;;;;;;23.44;51.81;100119.28;4970208;28;20208;-75
2023/07/01 10:21:29;;;;;;;3.93;2.60;;;;;;;23.51;55.49;100102.19;4970793;28;20224;-74
2023/07/01 10:23:56;;;;;;;3.85;2.05;;;;;;;23.55;51.50;100100.91;4973394;28;20413;-74
2023/07/01 10:26:43;;;;;;;5.20;2.40;;;;;;;23.60;52.08;100105.78;4973391;28;20219;-74
2023/07/01 10:29:41;;;;;;;2.33;1.88;;;;;;;23.53;47.13;100099.81;4970890;28;20210;-74
2023/07/01 10:32:31;;;;;;;2.42;1.90;;;;;;;23.52;48.69;100088.28;4973866;28;20690;-74
2023/07/01 10:35:14;;;;;;;5.47;2.40;;;;;;;23.51;51.89;100088.69;4966497;28;20328;-74
2023/07/01 10:37:41;;;;;;;3.03;2.13;;;;;;;23.58;58.52;100093.91;4985624;28;20290;-74
2023/07/01 10:40:41;;;;;;;5.60;2.55;;;;;;;23.61;50.80;100095.75;4967084;28;20299;-74
2023/07/01 10:43:29;;;;;;;3.15;2.20;;;;;;;23.67;52.29;100085.22;4966616;28;20941;-74
2023/07/01 10:46:23;;;;;;;2.92;1.83;;;;;;;23.72;49.96;100079.31;4962939;28;20308;-74
2023/07/01 10:49:08;;;;;;;1.88;1.60;;;;;;;23.77;48.49;100079.53;4959420;28;20665;-74
2023/07/01 10:52:06;;;;;;;4.60;2.05;;;;;;;23.83;48.02;100074.41;4960386;28;20206;-74
2023/07/01 10:54:35;;;;;;;9.90;2.67;;;;;;;23.91;50.93;100073.03;4967070;28;20241;-74
2023/07/01 10:57:13;;;;;;;4.32;2.05;;;;;;;23.98;52.77;100065.50;4966133;28;22560;-74
2023/07/01 10:59:39;;;;;;;2.90;1.80;;;;;;;24.05;51.25;100059.16;4970352;28;20216;-75
2023/07/01 11:02:08;;;;;;;4.97;2.03;;;;;;;24.13;53.92;100061.22;4990847;28;20229;-74
2023/07/01 11:05:11;;;;;;;3.00;1.70;;;;;;;24.25;53.89;100065.16;4975391;28;20229;-74
2023/07/01 11:07:44;;;;;;;4.07;1.90;;;;;;;24.27;47.00;100065.47;5068055;27;1261801;-74
2023/07/01 11:10:11;;;;;;;3.05;1.92;;;;;;;24.36;48.24;100063.66;5103244;28;20205;-74
2023/07/01 11:12:38;;;;;;;3.97;2.17;;;;;;;24.43;49.34;100053.38;5103378;28;20209;-76
2023/07/01 11:15:05;;;;;;;2.70;1.60;;;;;;;24.52;44.99;100050.81;5089454;28;20230;-76
2023/07/01 11:17:31;;;;;;;2.25;1.98;;;;;;;24.62;48.63;100049.00;5086528;28;20194;-76
2023/07/01 11:19:58;;;;;;;2.78;2.00;;;;;;;24.72;46.78;100041.75;5083602;28;20215;-76
2023/07/01 11:22:26;;;;;;;3.90;1.95;;;;;;;24.84;46.59;100038.28;5086400;28;20265;-76